Terminal Aerodrome Forecast
Issued by NWS Indianapolis, IN

Home | Current Version | Previous Version | Text Only | Print | Product List | Glossary On
Versions: 1 2 3 4 5 6 7 8 9 10 11 12 13 14 15 16 17 18 19 20 21 22 23 24 25
836
FTUS43 KIND 291722
TAFIND
TAF
KIND 291722Z 2918/3024 24006KT P6SM VCTS SCT020CB BKN080
     FM300100 29005KT P6SM SCT080 SCT250
     FM301000 28004KT 4SM BR BKN004
     FM301500 27007KT P6SM SCT015 SCT250=

USA.gov is the U.S. government's official web portal to all federal, state and local government web resources and services.